createdAt,value
2022-10-29T00:00:04.013Z,11.18
2022-10-29T00:02:30.916Z,11.21
2022-10-29T00:04:57.780Z,11.28
2022-10-29T00:07:24.614Z,11.23
2022-10-29T00:09:51.463Z,11.16
2022-10-29T00:12:18.261Z,11.19
2022-10-29T00:14:45.001Z,11.16
2022-10-29T00:17:11.808Z,11.14
2022-10-29T00:19:38.631Z,11.13
2022-10-29T00:22:05.634Z,11.13
2022-10-29T00:24:32.462Z,11.08
2022-10-29T00:26:59.238Z,10.96
2022-10-29T00:29:26.049Z,10.89
2022-10-29T00:31:52.997Z,10.97
2022-10-29T00:34:24.634Z,11.05
2022-10-29T00:36:51.435Z,11.00
2022-10-29T00:39:18.602Z,11.05
2022-10-29T00:41:45.388Z,10.92
2022-10-29T00:44:15.195Z,11.04
2022-10-29T00:46:45.744Z,10.93
2022-10-29T00:49:12.725Z,10.91
2022-10-29T00:51:39.871Z,10.80
2022-10-29T00:54:16.652Z,10.78
2022-10-29T00:56:48.170Z,10.70
2022-10-29T00:59:17.520Z,10.71
2022-10-29T01:01:47.169Z,10.64
2022-10-29T01:04:14.393Z,10.74
2022-10-29T01:06:47.319Z,10.59
2022-10-29T01:09:14.427Z,10.52
2022-10-29T01:12:28.933Z,10.53
2022-10-29T01:15:01.534Z,10.46
2022-10-29T01:17:58.744Z,10.45
2022-10-29T01:20:32.685Z,10.50
2022-10-29T01:23:11.398Z,10.39
2022-10-29T01:26:15.769Z,10.30
2022-10-29T01:29:22.347Z,10.46
2022-10-29T01:32:07.253Z,10.47
2022-10-29T01:34:51.176Z,10.65
2022-10-29T01:37:17.988Z,10.71
2022-10-29T01:39:55.362Z,10.66
2022-10-29T01:42:28.238Z,10.59
2022-10-29T01:45:08.793Z,10.46
2022-10-29T01:47:57.713Z,10.58
2022-10-29T01:50:25.982Z,10.78
2022-10-29T01:52:54.789Z,10.64
2022-10-29T01:55:29.575Z,10.59
2022-10-29T01:57:56.760Z,10.54
2022-10-29T02:00:24.625Z,10.52
2022-10-29T02:03:09.653Z,10.34
2022-10-29T02:05:58.589Z,10.31
2022-10-29T02:08:45.198Z,10.51
2022-10-29T02:11:20.227Z,10.63
2022-10-29T02:13:56.796Z,10.64
2022-10-29T02:16:23.916Z,10.48
2022-10-29T02:18:53.422Z,10.52
2022-10-29T02:21:21.275Z,10.38
2022-10-29T02:23:48.165Z,10.33
2022-10-29T02:26:16.143Z,10.30
2022-10-29T02:28:43.461Z,10.34
2022-10-29T02:31:10.765Z,10.24
2022-10-29T02:33:37.594Z,10.22
2022-10-29T02:36:04.802Z,10.13
2022-10-29T02:38:31.593Z,10.15
2022-10-29T02:40:58.442Z,10.08
2022-10-29T02:43:25.354Z,10.04
2022-10-29T02:46:10.815Z,10.02
2022-10-29T02:48:37.667Z,10.03
2022-10-29T02:51:04.557Z,9.98
2022-10-29T02:53:31.383Z,10.04
2022-10-29T02:55:58.273Z,10.05
2022-10-29T02:58:25.061Z,10.13
2022-10-29T03:00:53.012Z,10.04
2022-10-29T03:03:20.173Z,10.02
2022-10-29T03:05:49.101Z,10.21
2022-10-29T03:08:16.713Z,10.23
2022-10-29T03:10:43.714Z,10.32
2022-10-29T03:13:10.743Z,10.23
2022-10-29T03:15:37.792Z,10.39
2022-10-29T03:18:05.462Z,10.32
2022-10-29T03:20:41.816Z,10.21
2022-10-29T03:23:08.653Z,10.19
2022-10-29T03:25:35.438Z,10.17
2022-10-29T03:28:02.222Z,10.31
2022-10-29T03:30:29.207Z,10.36
2022-10-29T03:32:59.028Z,10.44
2022-10-29T03:35:45.175Z,10.31
2022-10-29T03:38:12.037Z,10.12
2022-10-29T03:40:38.813Z,10.22
2022-10-29T03:43:05.717Z,10.18
2022-10-29T03:45:32.557Z,10.27
2022-10-29T03:47:59.435Z,10.29
2022-10-29T03:50:26.343Z,10.28
2022-10-29T03:52:53.363Z,10.27
2022-10-29T03:55:38.974Z,10.21
2022-10-29T03:58:05.803Z,10.26
2022-10-29T04:00:32.708Z,10.23
2022-10-29T04:03:02.088Z,10.19
2022-10-29T04:05:29.023Z,10.21
2022-10-29T04:07:58.000Z,10.26
2022-10-29T04:10:26.085Z,10.28
2022-10-29T04:12:53.547Z,10.23
2022-10-29T04:15:20.618Z,10.41
2022-10-29T04:17:51.237Z,10.28
2022-10-29T04:20:41.287Z,10.11
2022-10-29T04:24:12.280Z,10.12
2022-10-29T04:28:36.872Z,10.00
2022-10-29T04:28:50.963Z,10.02
2022-10-29T04:31:18.850Z,10.04
2022-10-29T04:33:46.456Z,10.07
2022-10-29T04:36:13.373Z,9.92
2022-10-29T04:38:40.367Z,9.88
2022-10-29T04:41:07.200Z,9.97
2022-10-29T04:43:34.064Z,9.86
2022-10-29T04:46:00.993Z,9.93
2022-10-29T04:48:29.163Z,9.93
2022-10-29T04:50:56.112Z,9.93
2022-10-29T04:53:22.978Z,9.76
2022-10-29T04:55:49.948Z,9.97
2022-10-29T04:58:20.465Z,9.92
2022-10-29T05:00:47.346Z,9.89
2022-10-29T05:03:14.247Z,9.83
2022-10-29T05:05:41.976Z,9.74
2022-10-29T05:08:10.529Z,9.73
2022-10-29T05:10:39.636Z,9.94
2022-10-29T05:13:09.997Z,9.98
2022-10-29T05:15:37.744Z,10.10
2022-10-29T05:18:05.265Z,10.26
2022-10-29T05:20:32.605Z,10.33
2022-10-29T05:23:17.655Z,10.14
2022-10-29T05:25:46.597Z,10.13
2022-10-29T05:28:22.138Z,10.14
2022-10-29T05:30:50.575Z,10.33
2022-10-29T05:33:20.594Z,10.84
2022-10-29T05:35:47.488Z,11.36
2022-10-29T05:38:15.442Z,11.90
2022-10-29T05:40:45.303Z,12.38
2022-10-29T05:43:16.961Z,12.80
2022-10-29T05:45:44.866Z,13.92
2022-10-29T05:50:45.080Z,14.90
2022-10-29T05:53:14.410Z,15.56
2022-10-29T05:55:41.920Z,16.41
2022-10-29T05:58:13.368Z,16.25
2022-10-29T06:00:43.352Z,16.66
2022-10-29T06:03:18.577Z,16.97
2022-10-29T06:05:47.041Z,17.08
2022-10-29T06:08:14.029Z,17.93
2022-10-29T06:10:40.832Z,18.48
2022-10-29T06:13:15.464Z,18.40
2022-10-29T06:15:42.304Z,19.14
2022-10-29T06:18:09.251Z,19.64
2022-10-29T06:20:37.244Z,20.55
2022-10-29T06:23:04.410Z,20.62
2022-10-29T06:25:31.676Z,20.94
2022-10-29T06:28:19.353Z,21.68
2022-10-29T06:30:49.122Z,21.88
2022-10-29T06:33:17.330Z,22.07
2022-10-29T06:35:44.211Z,22.18
2022-10-29T06:38:12.375Z,21.44
2022-10-29T06:40:40.292Z,22.00
2022-10-29T06:43:09.618Z,22.49
2022-10-29T06:45:36.671Z,21.97
2022-10-29T06:48:05.303Z,23.35
2022-10-29T06:50:32.398Z,23.03
2022-10-29T06:53:01.897Z,22.84
2022-10-29T06:55:29.315Z,23.55
2022-10-29T06:58:00.847Z,22.81
2022-10-29T07:00:28.999Z,22.91
2022-10-29T07:02:57.290Z,23.04
2022-10-29T07:05:24.597Z,23.64
2022-10-29T07:07:58.867Z,24.28
2022-10-29T07:10:27.854Z,24.76
2022-10-29T07:12:54.872Z,24.37
2022-10-29T07:15:25.699Z,24.70
2022-10-29T07:17:55.937Z,24.56
2022-10-29T07:20:23.008Z,25.23
2022-10-29T07:22:49.858Z,24.99
2022-10-29T07:25:16.697Z,24.59
2022-10-29T07:27:43.860Z,24.74
2022-10-29T07:30:10.882Z,23.63
2022-10-29T07:32:37.739Z,24.63
2022-10-29T07:35:04.898Z,25.19
2022-10-29T07:37:31.704Z,24.34
2022-10-29T07:39:58.539Z,24.80
2022-10-29T07:42:25.312Z,23.79
2022-10-29T07:44:52.073Z,24.77
2022-10-29T07:47:18.920Z,24.76
2022-10-29T07:49:45.681Z,24.90
2022-10-29T07:52:12.623Z,25.23
2022-10-29T07:54:39.434Z,25.46
2022-10-29T07:57:06.207Z,25.48
2022-10-29T07:59:33.113Z,25.65
2022-10-29T08:01:59.940Z,25.65
2022-10-29T08:04:26.744Z,24.74
2022-10-29T08:06:53.562Z,25.43
2022-10-29T08:09:20.392Z,25.20
2022-10-29T08:14:20.311Z,25.11
2022-10-29T08:16:49.592Z,25.09
2022-10-29T08:19:16.376Z,24.85
2022-10-29T08:21:43.265Z,25.33
2022-10-29T08:24:11.016Z,25.65
2022-10-29T08:26:37.812Z,25.62
2022-10-29T08:29:04.888Z,25.18
2022-10-29T08:31:31.825Z,25.28
2022-10-29T08:33:58.675Z,25.64
2022-10-29T08:36:25.445Z,25.10
2022-10-29T08:38:52.332Z,24.62
2022-10-29T08:41:24.701Z,24.96
2022-10-29T08:43:51.451Z,25.05
2022-10-29T08:46:47.825Z,25.55
2022-10-29T08:49:23.827Z,25.25
2022-10-29T08:52:00.505Z,25.43
2022-10-29T08:54:32.472Z,25.46
2022-10-29T08:57:22.783Z,25.90
2022-10-29T09:00:04.997Z,25.90
2022-10-29T09:02:32.193Z,25.60
2022-10-29T09:04:59.695Z,25.78
2022-10-29T09:08:02.088Z,25.48
2022-10-29T09:10:47.398Z,25.90
2022-10-29T09:13:38.457Z,26.17
2022-10-29T09:16:29.376Z,26.33
2022-10-29T09:19:08.461Z,25.43
2022-10-29T09:21:48.929Z,25.23
2022-10-29T09:24:29.919Z,25.74
2022-10-29T09:27:08.114Z,26.23
2022-10-29T09:30:02.782Z,26.33
2022-10-29T09:32:47.694Z,25.27
2022-10-29T09:35:17.607Z,25.34
2022-10-29T09:37:55.051Z,25.34
2022-10-29T09:40:34.225Z,25.49
2022-10-29T09:43:06.420Z,26.00
2022-10-29T09:45:46.434Z,26.10
2022-10-29T09:48:33.121Z,25.98
2022-10-29T09:51:15.397Z,25.45
2022-10-29T09:53:42.312Z,25.74
2022-10-29T09:56:09.903Z,25.70
2022-10-29T09:58:41.898Z,25.86
2022-10-29T10:01:08.780Z,26.28
2022-10-29T10:03:45.829Z,25.83
2022-10-29T10:06:15.004Z,25.82
2022-10-29T10:09:02.831Z,25.75
2022-10-29T10:11:42.283Z,25.68
2022-10-29T10:14:22.427Z,26.16
2022-10-29T10:17:02.960Z,25.84
2022-10-29T10:19:32.466Z,26.16
2022-10-29T10:22:04.837Z,25.76
2022-10-29T10:24:35.630Z,25.47
2022-10-29T10:27:29.502Z,25.76
2022-10-29T10:30:05.183Z,25.85
2022-10-29T10:32:32.564Z,25.85
2022-10-29T10:34:59.371Z,25.76
2022-10-29T10:37:26.323Z,25.84
2022-10-29T10:40:01.889Z,25.91
2022-10-29T10:42:32.594Z,25.89
2022-10-29T10:45:02.457Z,25.87
2022-10-29T10:47:36.996Z,26.00
2022-10-29T10:50:33.899Z,25.93
2022-10-29T10:53:04.757Z,25.83
2022-10-29T10:55:46.801Z,25.46
2022-10-29T10:58:24.831Z,25.59
2022-10-29T11:01:15.267Z,25.41
2022-10-29T11:03:50.541Z,25.73
2022-10-29T11:06:25.183Z,25.44
2022-10-29T11:09:19.648Z,25.20
2022-10-29T11:11:59.932Z,25.43
2022-10-29T11:15:19.274Z,25.48
2022-10-29T11:18:00.211Z,25.18
2022-10-29T11:20:32.493Z,25.23
2022-10-29T11:23:04.893Z,25.04
2022-10-29T11:25:49.341Z,24.99
2022-10-29T11:28:27.955Z,24.96
2022-10-29T11:31:13.453Z,24.79
2022-10-29T11:33:49.253Z,24.62
2022-10-29T11:36:22.365Z,24.97
2022-10-29T11:39:09.120Z,24.80
2022-10-29T11:41:46.457Z,24.65
2022-10-29T11:44:15.492Z,24.46
2022-10-29T11:46:59.093Z,24.22
2022-10-29T11:49:44.234Z,24.43
2022-10-29T11:52:22.373Z,24.69
2022-10-29T11:55:00.378Z,24.33
2022-10-29T11:57:50.249Z,24.25
2022-10-29T12:00:23.923Z,24.23
2022-10-29T12:02:57.268Z,23.98
2022-10-29T12:05:40.815Z,23.94
2022-10-29T12:08:52.599Z,24.02
2022-10-29T12:11:45.582Z,24.05
2022-10-29T12:14:33.516Z,23.95
2022-10-29T12:17:13.337Z,23.94
2022-10-29T12:19:45.912Z,23.91
2022-10-29T12:22:45.324Z,23.77
2022-10-29T12:25:18.241Z,23.62
2022-10-29T12:28:22.077Z,23.56
2022-10-29T12:31:20.360Z,23.60
2022-10-29T12:34:05.990Z,23.29
2022-10-29T12:36:53.442Z,23.22
2022-10-29T12:39:32.450Z,23.06
2022-10-29T12:42:05.180Z,23.08
2022-10-29T12:44:45.444Z,23.01
2022-10-29T12:47:31.295Z,23.08
2022-10-29T12:50:11.024Z,22.96
2022-10-29T12:52:50.184Z,22.91
2022-10-29T12:55:17.955Z,22.96
2022-10-29T12:57:44.828Z,22.95
2022-10-29T13:00:47.632Z,22.80
2022-10-29T13:03:52.632Z,22.82
2022-10-29T13:07:10.400Z,22.58
2022-10-29T13:09:37.376Z,22.62
2022-10-29T13:12:09.953Z,22.52
2022-10-29T13:14:45.566Z,22.61
2022-10-29T13:17:24.597Z,22.46
2022-10-29T13:20:33.396Z,22.43
2022-10-29T13:23:03.999Z,22.49
2022-10-29T13:25:33.339Z,22.50
2022-10-29T13:28:09.199Z,22.38
2022-10-29T13:30:44.441Z,22.39
2022-10-29T13:33:26.430Z,22.23
2022-10-29T13:36:04.713Z,22.27
2022-10-29T13:39:05.256Z,22.27
2022-10-29T13:41:43.438Z,22.15
2022-10-29T13:44:13.966Z,22.08
2022-10-29T13:47:01.259Z,22.09
2022-10-29T13:49:37.115Z,22.13
2022-10-29T13:52:12.394Z,21.90
2022-10-29T13:55:00.504Z,21.82
2022-10-29T13:57:50.922Z,21.79
2022-10-29T14:00:21.841Z,21.77
2022-10-29T14:03:04.622Z,21.71
2022-10-29T14:05:46.661Z,21.75
2022-10-29T14:08:13.489Z,21.76
2022-10-29T14:10:40.205Z,21.69
2022-10-29T14:13:28.219Z,21.53
2022-10-29T14:16:11.567Z,21.46
2022-10-29T14:18:44.232Z,21.29
2022-10-29T14:21:35.573Z,21.36
2022-10-29T14:24:10.890Z,21.26
2022-10-29T14:26:43.282Z,21.14
2022-10-29T14:29:25.309Z,21.10
2022-10-29T14:32:22.744Z,21.09
2022-10-29T14:34:50.980Z,20.92
2022-10-29T14:37:23.333Z,20.96
2022-10-29T14:39:58.736Z,20.91
2022-10-29T14:42:32.378Z,20.86
2022-10-29T14:45:03.191Z,20.78
2022-10-29T14:47:36.226Z,20.91
2022-10-29T14:50:06.756Z,21.06
2022-10-29T14:52:43.994Z,21.19
2022-10-29T14:55:21.025Z,20.96
2022-10-29T14:58:14.907Z,20.61
2022-10-29T15:01:06.057Z,20.48
2022-10-29T15:03:35.175Z,20.38
2022-10-29T15:06:16.747Z,20.24
2022-10-29T15:08:56.577Z,20.00
2022-10-29T15:11:37.626Z,19.96
2022-10-29T15:14:24.203Z,19.85
2022-10-29T15:16:51.159Z,19.85
2022-10-29T15:19:18.666Z,19.90
2022-10-29T15:21:45.983Z,19.88
2022-10-29T15:24:20.404Z,19.69
2022-10-29T15:26:56.406Z,19.48
2022-10-29T15:29:32.239Z,19.30
2022-10-29T15:32:01.155Z,19.15
2022-10-29T15:34:28.012Z,19.12
2022-10-29T15:36:58.633Z,19.05
2022-10-29T15:39:49.577Z,18.86
2022-10-29T15:42:27.712Z,18.79
2022-10-29T15:48:06.162Z,18.63
2022-10-29T15:50:40.020Z,18.48
2022-10-29T15:53:11.732Z,18.44
2022-10-29T15:55:38.695Z,18.38
2022-10-29T15:58:17.793Z,18.32
2022-10-29T16:00:44.665Z,18.24
2022-10-29T16:03:20.683Z,18.18
2022-10-29T16:05:50.110Z,18.12
2022-10-29T16:08:30.237Z,18.07
2022-10-29T16:10:58.118Z,17.94
2022-10-29T16:13:27.080Z,17.95
2022-10-29T16:15:53.967Z,17.82
2022-10-29T16:18:21.168Z,17.72
2022-10-29T16:20:49.007Z,17.65
2022-10-29T16:23:15.945Z,17.60
2022-10-29T16:25:42.721Z,17.49
2022-10-29T16:28:10.308Z,17.42
2022-10-29T16:33:11.584Z,17.33
2022-10-29T16:35:57.259Z,17.25
2022-10-29T16:38:24.008Z,17.15
2022-10-29T16:40:51.370Z,17.00
2022-10-29T16:43:18.219Z,17.05
2022-10-29T16:45:45.078Z,16.99
2022-10-29T16:48:11.884Z,16.84
2022-10-29T16:50:38.780Z,16.72
2022-10-29T16:53:11.234Z,16.63
2022-10-29T16:55:40.461Z,16.58
2022-10-29T16:58:11.692Z,16.54
2022-10-29T17:00:38.673Z,16.55
2022-10-29T17:03:11.108Z,16.52
2022-10-29T17:05:40.383Z,16.43
2022-10-29T17:08:07.302Z,16.44
2022-10-29T17:10:34.695Z,16.39
2022-10-29T17:13:01.894Z,16.33
2022-10-29T17:15:29.181Z,16.20
2022-10-29T17:17:56.218Z,16.10
2022-10-29T17:20:23.252Z,16.03
2022-10-29T17:22:50.085Z,16.01
2022-10-29T17:25:16.994Z,15.87
2022-10-29T17:27:44.533Z,15.84
2022-10-29T17:30:11.792Z,15.81
2022-10-29T17:32:38.773Z,15.65
2022-10-29T17:35:05.993Z,15.57
2022-10-29T17:37:32.893Z,15.53
2022-10-29T17:40:03.146Z,15.49
2022-10-29T17:42:33.792Z,15.38
2022-10-29T17:45:00.619Z,15.30
2022-10-29T17:47:27.507Z,15.22
2022-10-29T17:49:54.424Z,15.32
2022-10-29T17:52:22.392Z,15.28
2022-10-29T17:54:49.217Z,15.31
2022-10-29T17:57:16.128Z,15.27
2022-10-29T17:59:42.934Z,15.22
2022-10-29T18:02:11.527Z,15.14
2022-10-29T18:04:38.443Z,15.10
2022-10-29T18:07:05.281Z,15.01
2022-10-29T18:09:32.076Z,14.86
2022-10-29T18:11:58.983Z,14.75
2022-10-29T18:14:25.752Z,14.70
2022-10-29T18:16:52.527Z,14.57
2022-10-29T18:19:19.448Z,14.54
2022-10-29T18:21:46.246Z,14.56
2022-10-29T18:24:13.072Z,14.54
2022-10-29T18:26:39.937Z,14.48
2022-10-29T18:29:09.044Z,14.41
2022-10-29T18:31:37.710Z,14.48
2022-10-29T18:34:06.695Z,14.67
2022-10-29T18:36:35.852Z,14.70
2022-10-29T18:39:04.158Z,14.61
2022-10-29T18:41:31.579Z,14.56
2022-10-29T18:43:59.043Z,14.52
2022-10-29T18:46:26.074Z,14.39
2022-10-29T18:48:53.210Z,14.28
2022-10-29T18:51:24.464Z,14.26
2022-10-29T18:53:52.888Z,14.18
2022-10-29T18:56:21.988Z,14.12
2022-10-29T18:58:49.181Z,14.05
2022-10-29T19:01:18.555Z,13.99
2022-10-29T19:03:50.760Z,13.96
2022-10-29T19:06:18.106Z,14.02
2022-10-29T19:08:45.198Z,13.84
2022-10-29T19:11:14.969Z,13.91
2022-10-29T19:13:42.050Z,13.98
2022-10-29T19:16:13.529Z,13.96
2022-10-29T19:18:41.329Z,13.84
2022-10-29T19:21:12.421Z,13.89
2022-10-29T19:23:40.056Z,13.80
2022-10-29T19:26:09.474Z,13.67
2022-10-29T19:28:36.685Z,13.76
2022-10-29T19:31:07.726Z,13.68
2022-10-29T19:33:53.443Z,13.71
2022-10-29T19:36:40.454Z,13.66
2022-10-29T19:39:07.988Z,13.68
2022-10-29T19:41:35.486Z,13.59
2022-10-29T19:44:03.179Z,13.68
2022-10-29T19:46:30.466Z,13.37
2022-10-29T19:49:00.853Z,13.49
2022-10-29T19:51:27.917Z,13.52
2022-10-29T19:53:55.077Z,13.51
2022-10-29T19:56:21.987Z,13.58
2022-10-29T19:58:49.296Z,13.59
2022-10-29T20:01:17.767Z,13.59
2022-10-29T20:03:45.705Z,13.64
2022-10-29T20:06:13.061Z,13.60
2022-10-29T20:08:39.892Z,13.53
2022-10-29T20:11:07.236Z,13.47
2022-10-29T20:13:34.463Z,13.43
2022-10-29T20:16:07.986Z,13.32
2022-10-29T20:18:36.042Z,13.40
2022-10-29T20:21:02.991Z,13.07
2022-10-29T20:23:30.060Z,13.34
2022-10-29T20:25:56.894Z,13.36
2022-10-29T20:28:23.785Z,13.35
2022-10-29T20:30:50.694Z,13.30
2022-10-29T20:33:17.536Z,13.19
2022-10-29T20:35:44.432Z,13.20
2022-10-29T20:38:11.312Z,13.25
2022-10-29T20:40:38.152Z,13.05
2022-10-29T20:43:05.095Z,13.04
2022-10-29T20:45:32.026Z,12.98
2022-10-29T20:48:03.132Z,13.08
2022-10-29T20:50:29.983Z,12.89
2022-10-29T20:52:56.821Z,12.75
2022-10-29T20:55:23.685Z,12.68
2022-10-29T20:57:50.537Z,12.59
2022-10-29T21:00:17.605Z,12.52
2022-10-29T21:02:44.487Z,12.48
2022-10-29T21:05:11.494Z,12.49
2022-10-29T21:07:41.257Z,12.47
2022-10-29T21:10:08.751Z,12.48
2022-10-29T21:12:35.695Z,12.42
2022-10-29T21:15:02.533Z,12.44
2022-10-29T21:17:29.464Z,12.39
2022-10-29T21:19:56.258Z,12.39
2022-10-29T21:22:23.108Z,12.37
2022-10-29T21:24:49.938Z,12.35
2022-10-29T21:27:16.804Z,12.34
2022-10-29T21:29:43.595Z,12.41
2022-10-29T21:32:12.862Z,12.43
2022-10-29T21:34:42.720Z,12.44
2022-10-29T21:37:09.480Z,12.36
2022-10-29T21:39:36.322Z,12.44
2022-10-29T21:42:03.412Z,12.32
2022-10-29T21:44:30.222Z,12.38
2022-10-29T21:46:57.007Z,12.31
2022-10-29T21:49:24.044Z,12.29
2022-10-29T21:51:50.841Z,12.21
2022-10-29T21:54:17.653Z,12.26
2022-10-29T21:56:44.661Z,12.27
2022-10-29T21:59:11.468Z,12.20
2022-10-29T22:01:38.396Z,12.28
2022-10-29T22:04:05.494Z,12.38
2022-10-29T22:06:32.287Z,12.34
2022-10-29T22:09:00.273Z,12.27
2022-10-29T22:11:28.979Z,12.14
2022-10-29T22:13:55.782Z,12.18
2022-10-29T22:16:23.004Z,12.14
2022-10-29T22:18:51.237Z,12.10
2022-10-29T22:21:20.739Z,12.08
2022-10-29T22:23:49.670Z,12.09
2022-10-29T22:26:18.645Z,11.93
2022-10-29T22:28:47.352Z,11.89
2022-10-29T22:33:34.037Z,11.80
2022-10-29T22:36:11.967Z,11.72
2022-10-29T22:38:39.346Z,11.84
2022-10-29T22:41:11.829Z,11.77
2022-10-29T22:43:39.505Z,11.68
2022-10-29T22:46:14.036Z,11.61
2022-10-29T22:48:41.165Z,11.74
2022-10-29T22:51:13.036Z,11.84
2022-10-29T22:53:39.968Z,11.72
2022-10-29T22:56:07.437Z,11.72
2022-10-29T22:58:34.572Z,11.87
2022-10-29T23:01:07.367Z,11.91
2022-10-29T23:03:35.107Z,11.89
2022-10-29T23:06:04.217Z,11.85
2022-10-29T23:08:32.419Z,11.69
2022-10-29T23:11:03.821Z,11.75
2022-10-29T23:13:30.688Z,11.63
2022-10-29T23:15:57.678Z,11.51
2022-10-29T23:18:24.470Z,11.61
2022-10-29T23:21:02.357Z,11.40
2022-10-29T23:23:30.318Z,11.35
2022-10-29T23:26:01.394Z,11.46
2022-10-29T23:28:30.219Z,11.31
2022-10-29T23:30:58.741Z,11.36
2022-10-29T23:33:27.123Z,11.65
2022-10-29T23:35:54.084Z,11.81
2022-10-29T23:38:21.199Z,11.78
2022-10-29T23:40:48.664Z,11.76
2022-10-29T23:43:15.762Z,11.82
2022-10-29T23:45:43.195Z,11.84
2022-10-29T23:48:10.313Z,11.87
2022-10-29T23:50:38.187Z,11.52
2022-10-29T23:53:07.132Z,11.37
2022-10-29T23:55:34.801Z,11.40
2022-10-29T23:58:02.472Z,11.60
